• Join FlightAware (Why Join?)
  • Login
  • US Flag 
10:17AM EDT


 

Airport Tracker/Info


-or-


 

Live Flight TrackerFlight Track Log ✈ EJA929 ✈ 08-Aug-2013 ✈ KMSP - KLVM

Flight Track Log - Related Links

Times and Time Zones

All times are in EDT time to prevent confusion due to time zone crossing. See the EJA929 flight status page for this flight to view local times or setup timezone preferences in your user account.

Time Position Orientation Groundspeed Altitude Reporting Facility
EDT Latitude Longitude Course Direction KTS MPH feet Rate Location/Type
01:14PM 44.9000 -93.2667 282° West 206 237 3,500  Level Minneapolis TRACON
01:16PM 44.9239 -93.3889 285° West 267 307 8,800 3,900 Climbing Minneapolis Center
01:17PM 44.9433 -93.5150 282° West 284 327 13,200 3,600 Climbing Minneapolis Center
01:18PM 44.9636 -93.6422 283° West 334 384 16,300 2,340 Climbing Minneapolis Center
01:19PM 44.9847 -93.7756 283° West 349 402 18,100 1,560 Climbing Minneapolis Center
01:20PM 45.0431 -94.1630 282° West  Level FlightAware Approximate
01:20PM 45.0050 -93.9108 282° West 352 405 19,600  Level Minneapolis Center
01:21PM 45.0267 -94.0514 282° West 362 417 21,100 1,620 Climbing Minneapolis Center
01:22PM 45.0522 -94.2236 282° West 372 428 23,000 1,680 Climbing Minneapolis Center
01:23PM 45.0761 -94.3703 283° West 380 437 24,600 1,560 Climbing Minneapolis Center
01:24PM 45.0953 -94.5225 280° West 391 450 26,300 1,560 Climbing Minneapolis Center
01:25PM 45.1114 -94.6897 278° West 397 457 27,900 1,680 Climbing Minneapolis Center
01:26PM 45.1272 -94.8475 278° West 404 465 29,800 1,680 Climbing Minneapolis Center
01:27PM 45.1422 -95.0028 278° West 401 461 31,400 1,860 Climbing Minneapolis Center
01:28PM 45.1569 -95.1564 278° West 397 457 33,700 2,280 Climbing Minneapolis Center
01:29PM 45.1700 -95.3017 277° West 379 436 36,200 2,040 Climbing Minneapolis Center
01:30PM 45.1864 -95.4672 278° West 359 413 38,000 1,560 Climbing Minneapolis Center
01:31PM 45.1986 -95.6064 277° West 358 412 39,500 1,140 Climbing Minneapolis Center
01:32PM 45.1956 -95.7447 268° West 355 409 40,700 960 Climbing Minneapolis Center
01:34PM 45.1786 -95.9092 262° West 353 406 41,800 900 Climbing Minneapolis Center
01:35PM 45.1592 -96.0461 259° West 356 410 42,800 480 Climbing Minneapolis Center
01:36PM 45.1569 -96.2483 269° West 379 436 43,000 60 Climbing Minneapolis Center
01:37PM 45.1728 -96.4028 278° West 395 455 43,000  Level Minneapolis Center
01:38PM 45.1881 -96.5617 278° West 407 468 43,000  Level Minneapolis Center
01:39PM 45.2036 -96.7261 278° West 421 484 43,000  Level Minneapolis Center
01:40PM 45.2194 -96.8922 278° West 426 490 43,000  Level Minneapolis Center
01:41PM 45.2400 -97.0944 278° West 432 497 43,000  Level Minneapolis Center
01:42PM 45.2547 -97.2597 277° West 428 493 43,000  Level Minneapolis Center
01:43PM 45.2708 -97.4267 278° West 429 494 43,000  Level Minneapolis Center
01:44PM 45.2858 -97.5942 277° West 430 495 43,000  Level Minneapolis Center
01:45PM 45.3008 -97.7614 277° West 429 494 43,000  Level Minneapolis Center
01:46PM 45.3183 -97.9664 277° West 435 501 43,000  Level Minneapolis Center
01:47PM 45.3322 -98.1400 277° West 438 504 43,000  Level Minneapolis Center
01:48PM 45.3467 -98.3117 277° West 438 504 43,000  Level Minneapolis Center
01:49PM 45.3614 -98.4808 277° West 435 501 43,000  Level Minneapolis Center
01:50PM 45.3747 -98.6511 276° West 435 501 43,000  Level Minneapolis Center
01:51PM 45.3878 -98.8203 276° West 433 498 43,000  Level Minneapolis Center
01:52PM 45.4014 -98.9900 277° West 433 498 43,000  Level Minneapolis Center
01:53PM 45.4167 -99.1953 276° West 436 502 43,000  Level Minneapolis Center
01:54PM 45.4300 -99.3664 276° West 438 504 43,000  Level Minneapolis Center
01:55PM 45.4422 -99.5386 276° West 440 506 43,000  Level Minneapolis Center
01:56PM 45.4544 -99.7092 276° West 438 504 43,000  Level Minneapolis Center
01:58PM 45.4658 -99.8806 275° West 439 505 43,000  Level Minneapolis Center
01:59PM 45.4803 -100.0867 276° West 439 505 43,000  Level Minneapolis Center
02:00PM 45.4911 -100.2578 275° West 439 505 43,000  Level Minneapolis Center
02:01PM 45.5031 -100.4322 276° West 443 510 43,000  Level Minneapolis Center
02:02PM 45.5142 -100.6064 275° West 444 511 43,000  Level Minneapolis Center
02:03PM 45.5261 -100.8178 275° West 447 514 43,000  Level Minneapolis Center
02:04PM 45.5361 -100.9950 275° West 449 517 43,000  Level Minneapolis Center
02:05PM 45.5481 -101.1725 276° West 450 518 43,000  Level Minneapolis Center
02:06PM 45.5589 -101.3519 275° West 454 522 43,000  Level Minneapolis Center
02:07PM 45.5692 -101.5311 275° West 453 521 43,000  Level Minneapolis Center
02:08PM 45.5814 -101.7469 275° West 455 524 43,000  Level Minneapolis Center
02:09PM 45.5919 -101.9647 274° West 459 528 43,000  Level Minneapolis Center
02:10PM 45.5994 -102.1464 273° West 459 528 43,000  Level Minneapolis Center
02:11PM 45.6094 -102.3272 275° West 459 528 43,000  Level Minneapolis Center
02:12PM 45.6169 -102.5094 273° West 459 528 43,000  Level Minneapolis Center
02:13PM 45.6250 -102.7097 273° West 461 531 43,000  Level Minneapolis Center
02:14PM 45.6328 -102.8914 274° West 460 529 43,000  Level Minneapolis Center
02:15PM 45.6414 -103.0722 274° West 458 527 43,000  Level Minneapolis Center
02:16PM 45.6475 -103.2536 273° West 457 526 43,000  Level Minneapolis Center
02:17PM 45.6525 -103.3994 273° West 463 533 43,000  Level Salt Lake Center
02:18PM 45.6586 -103.5833 273° West 463 533 43,000  Level Salt Lake Center
02:19PM 45.6653 -103.7714 273° West 462 532 43,000  Level Salt Lake Center
02:20PM 45.6717 -103.9508 273° West 464 534 43,000  Level Salt Lake Center
02:21PM 45.6767 -104.1356 272° West 464 534 43,000  Level Salt Lake Center
02:22PM 45.6825 -104.3200 273° West 466 536 43,000  Level Salt Lake Center
02:23PM 45.6886 -104.5353 272° West 464 534 43,000  Level Salt Lake Center
02:24PM 45.6947 -104.7214 273° West 469 540 43,000  Level Salt Lake Center
02:25PM 45.6992 -104.9064 272° West 469 540 43,000  Level Salt Lake Center
02:26PM 45.7031 -105.0917 272° West 468 539 43,000  Level Salt Lake Center
02:27PM 45.7078 -105.3158 272° West 470 541 43,000  Level Salt Lake Center
02:28PM 45.7119 -105.5008 272° West 469 540 43,000  Level Salt Lake Center
02:29PM 45.7156 -105.6894 272° West 473 544 43,000  Level Salt Lake Center
02:31PM 45.7181 -105.8775 271° West 475 547 43,000  Level Salt Lake Center
02:32PM 45.7208 -106.0644 271° West 471 542 43,000  Level Salt Lake Center
02:33PM 45.7211 -106.2486 270° West 467 537 43,000  Level Salt Lake Center
02:34PM 45.7225 -106.4725 271° West 468 539 43,000  Level Salt Lake Center
02:35PM 45.7261 -106.6636 272° West 477 549 43,000  Level Salt Lake Center
02:36PM 45.7289 -106.8539 271° West 480 552 43,000  Level Salt Lake Center
02:37PM 45.7308 -107.0467 271° West 484 557 43,000  Level Salt Lake Center
02:38PM 45.7314 -107.2356 270° West 480 552 43,000  Level Salt Lake Center
02:39PM 45.7317 -107.4617 270° West 477 549 43,000  Level Salt Lake Center
02:40PM 45.7328 -107.6531 271° West 483 556 43,000  Level Salt Lake Center
02:41PM 45.7319 -107.8436 270° West 482 555 43,000  Level Salt Lake Center
02:42PM 45.7314 -108.0358 270° West 487 560 43,000 -600 Level Salt Lake Center
02:43PM 45.7306 -108.2261 270° West 483 556 41,800 -1,800 Descending Salt Lake Center
02:44PM 45.7281 -108.4483 269° West 469 540 39,400 -2,460 Descending Salt Lake Center
02:45PM 45.7267 -108.6408 269° West 485 558 36,800 -2,760 Descending Salt Lake Center
02:46PM 45.7258 -108.8278 270° West 473 544 33,700 -3,000 Descending Salt Lake Center
02:47PM 45.7228 -109.0133 269° West 470 541 30,600 -3,000 Descending Salt Lake Center
02:48PM 45.6964 -109.2006 259° West 475 547 27,500 -3,000 Descending Salt Lake Center
02:49PM 45.6744 -109.3836 260° West 471 542 24,400 -2,640 Descending Salt Lake Center
02:50PM 45.6797 -109.5964 272° West 446 513 22,100 -2,340 Descending Salt Lake Center
02:51PM 45.6844 -109.7653 272° West 419 482 19,600 -2,340 Descending Salt Lake Center
02:52PM 45.6869 -109.9208 271° West 408 470 17,300 -2,520 Descending Salt Lake Center
02:53PM 45.6903 -110.0728 272° West 390 449 14,500 -1,680 Descending Salt Lake Center
02:54PM 45.6950 -110.2394 272° West 377 434 13,800 -720 Descending Salt Lake Center
02:56PM 45.6833 -110.4333 270° West  Level FlightAware Approximate
03:03PM 45.6994 -110.4480 270° West  Level Estimated
03:04PM 45.6994 -110.4480 270° West  Level Estimated
03:05PM 45.6994 -110.4480 270° West  Level Estimated
03:06PM 45.6994 -110.4480 270° West  Level Estimated
03:07PM 45.6994 -110.4480 270° West  Level Estimated
03:08PM 45.6994 -110.4480 270° West  Level Estimated
03:09PM 45.6994 -110.4480 270° West  Level Estimated
03:10PM 45.6994 -110.4480 270° West  Level Estimated
03:11PM 45.6994 -110.4480 270° West  Level Estimated
03:12PM 45.6994 -110.4480 270° West  Level Estimated
03:13PM 45.6994 -110.4480 270° West  Level Estimated
03:14PM 45.6994 -110.4480 270° West  Level Estimated